Jepson Prairie Reserve, California Weather observations

Data are for 10 minute period ending at time listed.
 Day   Time   Solar   Ave.   Ave.  Ave.  Vector  Max.   Baro.   Total    
  of    of     Rad.   Air    Rel.  Wind   Wind   Wind  Press.  Precip.   
Year   Day            Temp.  Hum.  Speed  Dir.   Gust                    
2014   (PST)  Kw/m2    F      %     mph   deg.    mph    mb.     in.     
-------------------------------------------------------------------------
 303   20:10   0.00   61.5    83   13.8   214    16.8   1009.5    0.00 
 303   20:20   0.00   61.4    83   12.4   208    16.4   1009.1    0.00 
 303   20:30   0.00   61.3    84   13.9   208    17.6   1009.1    0.00 
 303   20:40   0.00   61.3    85   16.6   215    21.2   1009.1    0.00 
 303   20:50   0.00   61.4    85   18.6   217    23.5   1009.1    0.00 
 303   21:00   0.00   61.4    85   22.2   217    27.7   1009.1    0.00 
 303   21:10   0.00   61.6    85   21.3   216    26.1   1009.5    0.00 
 303   21:20   0.00   61.6    85   19.5   221    24.5   1009.5    0.00 
 303   21:30   0.00   61.4    85   16.5   218    20.3   1009.8    0.00 
 303   21:40   0.00   61.3    86   13.3   213    18.6   1009.8    0.00 
 303   21:50   0.00   60.9    86   11.1   208    16.1   1009.8    0.00 
 303   22:00   0.00   60.7    87    9.7   211    12.4   1010.2    0.00 
 303   22:10   0.00   60.5    87    8.0   209    12.6   1010.2    0.00 
 303   22:20   0.00   60.4    88    7.9   209    11.7   1009.8    0.00 
 303   22:30   0.00   60.3    88    9.2   212    13.5   1009.8    0.00 
 303   22:40   0.00   60.3    88   13.2   208    18.6   1009.8    0.00 
 303   22:50   0.00   60.7    88   18.2   212    22.9   1009.8    0.00 
 303   23:00   0.00   60.6    88   17.9   217    24.6   1009.8    0.00 
 303   23:10   0.00   60.5    88   18.6   221    23.6   1009.8    0.00 
 303   23:20   0.00   60.4    88   18.2   222    21.5   1009.8    0.00 
 303   23:30   0.00   60.4    89   17.3   222    22.7   1009.8    0.00 
 303   23:40   0.00   60.3    89   15.8   221    20.3   1009.8    0.00 
 303   23:50   0.00   60.3    90   15.0   220    18.4   1010.2    0.00 
 304    0:00   0.00   60.2    90   14.0   219    17.3   1010.2    0.00 
 304    0:10   0.00   60.2    90   12.6   212    15.0   1010.2    0.00 
 304    0:20   0.00   60.2    90   11.8   215    13.9   1010.2    0.00 
 304    0:30   0.00   60.3    90   11.2   211    14.2   1010.2    0.00 
 304    0:40   0.00   60.5    90    9.2   204    12.1   1010.2    0.00 
 304    0:50   0.00   60.5    90    9.7   212    13.4   1010.2    0.00 
 304    1:00   0.00   60.6    89   12.1   212    15.7   1009.8    0.00 
 304    1:10   0.00   60.5    87   12.5   210    15.3   1009.8    0.00 
 304    1:20   0.00   60.3    87   11.2   212    14.5   1009.8    0.00 
 304    1:30   0.00   60.3    88   10.2   204    14.0   1010.2    0.00 
 304    1:40   0.00   60.4    87    8.3   197    12.8   1009.8    0.00 
 304    1:50   0.00   60.3    88    6.6   186    10.4   1010.2    0.00 
 304    2:00   0.00   60.1    87    7.9   192    12.1   1010.2    0.00 
 304    2:10   0.00   60.2    85    8.4   197    12.6   1010.2    0.00 
 304    2:20   0.00   60.6    83   10.0   215    14.2   1010.2    0.00 
 304    2:30   0.00   60.6    81   11.8   211    16.9   1009.8    0.00 
 304    2:40   0.00   60.9    78   17.7   212    21.5   1009.8    0.00 
 304    2:50   0.00   61.3    75   16.0   206    20.8   1009.8    0.00 
 304    3:00   0.00   61.5    74   13.8   199    17.6   1009.8    0.00 
 304    3:10   0.00   61.4    74   12.9   206    15.3   1009.8    0.00 
 304    3:20   0.00   61.5    73   11.7   205    14.8   1009.8    0.00 
 304    3:30   0.00   61.4    74   10.9   194    13.5   1009.8    0.00 
 304    3:40   0.00   61.6    73    7.5   177    10.3   1009.8    0.00 
 304    3:50   0.00   61.7    73    6.5   175     8.8   1009.8    0.00 
 304    4:00   0.00   61.5    73    4.0   168     6.2   1009.8    0.00 
 304    4:10   0.00   61.0    74    3.5   181     4.4   1009.5    0.00 
 304    4:20   0.00   60.0    76    3.9   141     6.1   1009.1    0.00 
 304    4:30   0.00   59.2    78    8.4    88    12.2   1008.5    0.00 
 304    4:40   0.00   58.9    81    9.6    89    12.7   1008.5    0.00 
 304    4:50   0.00   58.3    85    8.3    88    12.3   1008.5    0.00 
 304    5:00   0.00   57.8    87    9.1    92    12.0   1008.5    0.00 
 304    5:10   0.00   57.5    88    7.6    96    10.3   1008.5    0.00 
 304    5:20   0.00   57.4    88    7.2   116     9.8   1008.5    0.00 
 304    5:30   0.00   57.0    88    4.3   141     5.9   1008.8    0.00 
 304    5:40   0.00   57.0    89    3.7   154     6.1   1008.8    0.00 
 304    5:50   0.00   57.0    89    3.9   168     5.6   1009.1    0.00 
 304    6:00   0.00   57.4    89    5.2   178     6.7   1009.1    0.00 
 304    6:10   0.00   57.4    88    6.3   184     6.8   1009.1    0.00 
 304    6:20   0.00   57.5    88    6.2   173     6.8   1009.1    0.00 
 304    6:30   0.00   57.8    87    4.5   174     6.0   1009.1    0.00 
 304    6:40   0.00   57.8    87    4.7   174     5.9   1009.1    0.00 
 304    6:50   0.00   57.8    86    5.5   162     7.1   1009.1    0.00 
 304    7:00   0.02   58.4    85    4.5   172     6.1   1009.1    0.00 
 304    7:10   0.02   58.4    85    3.5   184     5.3   1009.1    0.00 
 304    7:20   0.03   58.5    84    1.7   156     3.9   1009.1    0.00 
 304    7:30   0.03   58.4    84    2.6   126     5.2   1009.1    0.00 
 304    7:40   0.03   58.8    84    5.8   132     7.2   1009.1    0.00 
 304    7:50   0.05   59.5    82    6.4   138     8.9   1009.1    0.00 
 304    8:00   0.07   60.1    80    7.1   140     9.0   1009.1    0.00 
 304    8:10   0.11   61.0    78    7.4   135    10.0   1009.1    0.00 
 304    8:20   0.12   61.9    75    7.4   141     9.6   1009.1    0.00 
 304    8:30   0.10   62.6    73    7.9   144     9.9   1009.1    0.00 
 304    8:40   0.08   62.8    72    7.6   149    10.0   1009.5    0.00 
 304    8:50   0.08   63.0    71    7.2   152     9.1   1009.5    0.00 
 304    9:00   0.07   63.2    71    7.1   157     9.4   1009.8    0.00 
 304    9:10   0.05   63.0    73    7.0   185     9.7   1009.8    0.00 
 304    9:20   0.06   61.8    81    7.6   202    10.1   1009.8    0.00 
 304    9:30   0.05   61.2    86    7.0   204    11.5   1009.8    0.00 
 304    9:40   0.05   60.6    89    7.5   200     9.9   1009.8    0.02 
 304    9:50   0.05   60.3    91    7.0   197     9.1   1009.8    0.01 
 304   10:00   0.04   60.2    92    6.2   193     8.0   1009.5    0.01 
 304   10:10   0.04   60.0    92    6.5   195     8.6   1009.5    0.03 
 304   10:20   0.04   59.8    93    6.7   199     8.6   1009.5    0.03 
 304   10:30   0.05   59.5    94    6.7   200     9.3   1009.1    0.04 
 304   10:40   0.08   59.5    94    5.4   199     7.5   1009.1    0.03 
 304   10:50   0.33   60.0    95    5.6   210     6.7   1008.8    0.01 
 304   11:00   0.25   60.7    94    6.6   205     8.6   1008.8    0.00 
 304   11:10   0.21   61.3    93    7.2   191    10.4   1008.8    0.00 
 304   11:20   0.13   61.4    91    8.0   187    10.1   1008.8    0.00 
 304   11:30   0.09   61.6    90    8.0   193    10.1   1008.8    0.01 
 304   11:40   0.09   61.4    90    7.7   190     9.7   1008.5    0.00 
 304   11:50   0.06   61.3    89    7.2   202     9.4   1008.1    0.00 
 304   12:00   0.06   61.2    89    7.9   199     9.8   1008.1    0.00 
 304   12:10   0.06   60.9    90    8.7   203    11.0   1008.1    0.00 
 304   12:20   0.05   60.0    92    9.1   220    12.0   1008.1    0.00 
 304   12:30   0.02   58.9    93    8.9   215    11.8   1008.1    0.00 
 304   12:40   0.03   58.5    94   10.6   217    13.4   1007.8    0.00 
 304   12:50   0.02   58.3    95   12.2   216    18.0   1007.8    0.00 
 304   13:00   0.02   57.6    95   14.6   226    19.3   1007.5    0.03 
 304   13:10   0.04   57.0    95   13.4   244    16.9   1007.1    0.03 
 304   13:20   0.04   56.9    95    9.8   244    12.9   1007.1    0.00 
 304   13:30   0.04   56.9    94    5.5   248     8.9   1006.8    0.00 
 304   13:40   0.03   56.9    93    2.9   254     6.0   1006.4    0.00 
 304   13:50   0.03   57.1    92    3.6   227     6.8   1006.8    0.00 
 304   14:00   0.04   57.2    92    4.8   212     6.4   1006.8    0.01 
 304   14:10   0.05   56.9    92    5.6   200     7.1   1006.8    0.01 
 304   14:20   0.06   57.1    93    5.3   196     8.8   1006.8    0.00 
 304   14:30   0.06   56.9    93    6.8   189    10.4   1006.8    0.01 
 304   14:40   0.05   56.9    93    7.2   186     9.7   1006.8    0.00 
 304   14:50   0.06   57.0    93    7.5   177     9.6   1006.4    0.00 
 304   15:00   0.04   56.8    93    8.1   187    10.2   1006.4    0.00 
 304   15:10   0.04   56.6    93    7.1   183     9.3   1006.4    0.00 
 304   15:20   0.04   56.7    93    6.4   172     8.4   1006.4    0.00 
 304   15:30   0.03   56.9    93    9.5   186    12.2   1006.8    0.00 
 304   15:40   0.04   56.9    93    7.4   184     9.7   1006.1    0.00 
 304   15:50   0.04   56.9    93    6.6   185     8.8   1006.1    0.00 
 304   16:00   0.03   56.8    93    6.3   183     8.1   1006.1    0.00 
 304   16:10   0.03   56.8    93    4.9   175     6.9   1006.1    0.00 
 304   16:20   0.01   56.9    93    5.6   176     7.5   1006.1    0.00 
 304   16:30   0.01   56.8    93    5.9   187     7.0   1006.1    0.00 
 304   16:40   0.01   56.8    94    6.4   186     7.8   1006.1    0.00 
 304   16:50   0.01   56.8    94    5.6   194     7.9   1006.1    0.00 
 304   17:00   0.00   56.6    93    5.0   203     6.3   1005.4    0.00 
 304   17:10   0.00   56.4    94    6.7   207     8.6   1005.4    0.00 
 304   17:20   0.00   56.4    94    8.8   200    11.2   1005.8    0.00 
 304   17:30   0.00   56.4    94    6.9   186     9.3   1005.4    0.00 
 304   17:40   0.00   56.3    94    6.6   191     7.8   1005.4    0.00 
 304   17:50   0.00   56.2    94    7.5   211    10.8   1005.1    0.00 
 304   18:00   0.00   56.4    94   10.2   223    15.9   1005.1    0.00 
 304   18:10   0.00   56.6    93   13.9   219    18.1   1005.1    0.00 
 304   18:20   0.00   56.8    92    7.5   207     9.6   1005.1    0.00 
 304   18:30   0.00   56.9    93    6.8   199     8.3   1005.1    0.00 
 304   18:40   0.00   56.6    93    7.0   191     8.6   1005.1    0.00 
 304   18:50   0.00   56.4    93    6.3   198     8.4   1005.1    0.00 
 304   19:00   0.00   56.4    93    7.2   191     9.9   1005.1    0.00 
 304   19:10   0.00   56.4    92    7.4   203     9.3   1004.7    0.00 
 304   19:20   0.00   56.3    92    7.1   206     9.9   1004.7    0.00 
 304   19:30   0.00   56.1    91    6.1   204     8.0   1004.7    0.00 
 304   19:40   0.00   56.0    90    9.4   206    13.4   1004.7    0.00 
 304   19:50   0.00   55.8    86    8.6   212    10.7   1004.4    0.00 
 304   20:00   0.00   55.4    85    7.5   213     9.3   1004.1    0.00 

Return to Jepson Prairie Reserve graphs page.


Western Regional Climate Center,wrcc@dri.edu